Time;durP1;ratioP1;P1;durP2;ratioP2;P2;SDS_P1;SDS_P2;PMS_P1;PMS_P2;Temp;Humidity;BMP_temperature;BMP_pressure;BME280_temperature;BME280_humidity;BME280_pressure;Samples;Min_cycle;Max_cycle;Signal;HPM_P1;HPM_P2
2024/01/12 00:01:47;;;;;;;34.88;20.42;;;3.50;71.90;;;;;;5028390;28;20041;-65
2024/01/12 00:04:15;;;;;;;39.78;21.27;;;3.50;72.00;;;;;;5047074;23;20060;-56
2024/01/12 00:06:55;;;;;;;39.85;22.02;;;3.50;72.10;;;;;;5004997;28;20092;-57
2024/01/12 00:09:22;;;;;;;38.58;20.85;;;3.50;72.00;;;;;;5016857;28;20038;-58
2024/01/12 00:11:51;;;;;;;36.58;20.48;;;3.50;72.00;;;;;;5028626;28;20561;-58
2024/01/12 00:14:19;;;;;;;36.63;20.83;;;3.50;72.00;;;;;;5021229;28;20034;-58
2024/01/12 00:16:50;;;;;;;39.92;21.90;;;3.60;72.10;;;;;;5005826;28;20057;-58
2024/01/12 00:19:19;;;;;;;35.47;20.88;;;3.60;72.00;;;;;;5004826;28;20100;-58
2024/01/12 00:21:49;;;;;;;37.13;21.23;;;3.60;72.00;;;;;;5009711;28;20049;-58
2024/01/12 00:24:18;;;;;;;37.75;21.90;;;3.60;72.00;;;;;;4991778;28;20042;-58
2024/01/12 00:26:48;;;;;;;34.15;19.90;;;3.60;72.00;;;;;;5002099;28;20070;-57
2024/01/12 00:29:14;;;;;;;34.40;20.27;;;3.60;72.00;;;;;;5003674;28;20042;-58
2024/01/12 00:31:45;;;;;;;38.22;23.27;;;3.60;72.00;;;;;;5005805;28;20042;-58
2024/01/12 00:34:14;;;;;;;37.38;21.80;;;3.60;72.00;;;;;;4999785;28;20070;-58
2024/01/12 00:36:41;;;;;;;42.45;22.90;;;3.60;72.10;;;;;;5005505;28;20408;-58
2024/01/12 00:39:09;;;;;;;41.03;24.02;;;3.60;72.10;;;;;;5005249;28;20112;-59
2024/01/12 00:41:37;;;;;;;40.28;21.25;;;3.60;72.20;;;;;;5007922;28;20100;-58
2024/01/12 00:44:09;;;;;;;39.72;22.58;;;3.60;72.20;;;;;;5007182;28;20050;-58
2024/01/12 00:46:36;;;;;;;;;;;3.60;72.20;;;;;;5009291;28;20468;-57
2024/01/12 00:49:03;;;;;;;36.03;19.75;;;3.70;73.20;;;;;;5002712;28;20344;-57
2024/01/12 00:51:30;;;;;;;38.63;21.10;;;3.70;71.70;;;;;;5009513;28;20040;-58
2024/01/12 00:53:56;;;;;;;36.97;21.63;;;3.70;71.80;;;;;;5010023;28;20535;-58
2024/01/12 00:56:24;;;;;;;36.78;20.73;;;3.70;72.00;;;;;;5012639;28;20121;-57
2024/01/12 00:58:50;;;;;;;46.28;22.73;;;3.70;72.00;;;;;;5001118;28;20041;-58
2024/01/12 01:01:20;;;;;;;37.90;21.70;;;3.70;72.10;;;;;;5011825;28;20716;-57
2024/01/12 01:03:59;;;;;;;;;;;;;;;;;;;;;
2024/01/12 01:06:29;;;;;;;40.22;21.65;;;3.70;72.20;;;;;;5001033;28;20049;-58
2024/01/12 01:08:57;;;;;;;40.00;22.15;;;3.70;72.20;;;;;;5009520;28;20068;-58
2024/01/12 01:11:25;;;;;;;41.00;23.08;;;3.70;72.20;;;;;;5012911;28;20048;-58
2024/01/12 01:13:56;;;;;;;39.58;22.13;;;3.70;72.20;;;;;;5011040;28;20052;-58
2024/01/12 01:16:23;;;;;;;45.17;23.65;;;3.70;72.30;;;;;;5004091;28;20045;-58
2024/01/12 01:18:52;;;;;;;43.35;24.40;;;3.70;72.30;;;;;;5006162;28;20151;-58
2024/01/12 01:21:21;;;;;;;43.85;24.27;;;3.80;72.40;;;;;;5009107;28;20100;-58
2024/01/12 01:23:54;;;;;;;40.38;22.50;;;3.80;72.40;;;;;;5012662;28;20489;-58
2024/01/12 01:26:25;;;;;;;38.90;21.60;;;3.80;72.40;;;;;;5006336;28;20042;-58
2024/01/12 01:28:57;;;;;;;41.45;22.52;;;3.80;72.30;;;;;;5010453;28;20423;-58
2024/01/12 01:31:26;;;;;;;40.33;22.80;;;3.80;72.40;;;;;;5009683;28;20076;-58
2024/01/12 01:33:58;;;;;;;37.65;21.50;;;3.80;72.30;;;;;;5001708;28;20039;-59
2024/01/12 01:36:27;;;;;;;36.03;21.38;;;3.80;72.40;;;;;;5007872;28;20057;-58
2024/01/12 01:38:54;;;;;;;53.83;23.80;;;3.70;72.40;;;;;;5010053;28;20416;-58
2024/01/12 01:41:25;;;;;;;37.97;21.63;;;3.80;72.40;;;;;;5010648;28;20454;-58
2024/01/12 01:43:54;;;;;;;48.40;23.23;;;3.80;72.40;;;;;;5001015;28;20097;-58
2024/01/12 01:46:23;;;;;;;53.58;24.20;;;3.80;72.40;;;;;;5011043;28;20092;-59
2024/01/12 01:48:51;;;;;;;46.25;23.65;;;3.80;72.30;;;;;;5002496;28;20042;-58
2024/01/12 01:51:31;;;;;;;47.58;22.70;;;3.80;72.30;;;;;;5009441;28;20037;-58
2024/01/12 01:54:02;;;;;;;50.67;24.50;;;3.80;72.30;;;;;;5012014;28;20455;-58
2024/01/12 01:56:36;;;;;;;54.42;23.75;;;3.80;72.30;;;;;;4988849;28;20547;-59
2024/01/12 01:59:09;;;;;;;52.05;25.05;;;3.80;72.30;;;;;;5010743;28;20053;-58
2024/01/12 02:01:42;;;;;;;49.53;24.02;;;3.80;72.20;;;;;;5011983;28;20060;-58
2024/01/12 02:04:11;;;;;;;52.25;25.20;;;3.80;72.40;;;;;;5011896;28;20046;-58
2024/01/12 02:06:38;;;;;;;56.95;25.67;;;3.80;72.20;;;;;;5003647;28;20042;-58
2024/01/12 02:09:12;;;;;;;56.97;24.33;;;3.80;72.30;;;;;;5009545;28;20046;-58
2024/01/12 02:11:47;;;;;;;50.15;26.08;;;3.80;72.30;;;;;;5011843;28;20041;-59
2024/01/12 02:14:20;;;;;;;45.45;23.00;;;3.80;72.40;;;;;;5003823;28;20096;-57
2024/01/12 02:16:51;;;;;;;45.67;24.67;;;3.80;72.40;;;;;;5011675;28;20065;-57
2024/01/12 02:19:21;;;;;;;55.72;25.98;;;3.80;72.50;;;;;;5004251;28;20046;-58
2024/01/12 02:21:50;;;;;;;59.15;25.83;;;3.80;72.40;;;;;;5011284;28;20084;-58
2024/01/12 02:24:19;;;;;;;55.15;24.83;;;3.90;72.50;;;;;;5010042;28;20089;-59
2024/01/12 02:26:46;;;;;;;65.25;27.20;;;3.80;72.40;;;;;;5006063;28;20046;-58
2024/01/12 02:29:13;;;;;;;59.25;26.45;;;3.80;72.40;;;;;;5003348;28;20058;-58
2024/01/12 02:31:42;;;;;;;62.75;27.90;;;3.80;72.40;;;;;;5011620;28;20038;-58
2024/01/12 02:34:09;;;;;;;62.17;30.65;;;3.80;72.50;;;;;;5010978;28;20081;-58
2024/01/12 02:36:43;;;;;;;63.97;27.38;;;3.90;72.60;;;;;;5001359;28;20077;-58
2024/01/12 02:39:10;;;;;;;59.00;28.95;;;3.90;72.60;;;;;;5008137;28;20065;-58
2024/01/12 02:41:39;;;;;;;67.40;29.35;;;3.90;72.60;;;;;;5011338;28;20042;-55
2024/01/12 02:44:08;;;;;;;70.80;30.08;;;3.90;72.60;;;;;;5010450;28;20053;-57
2024/01/12 02:46:40;;;;;;;68.75;31.98;;;3.90;72.60;;;;;;5006946;28;20124;-58
2024/01/12 02:49:18;;;;;;;62.80;27.75;;;3.90;72.60;;;;;;5004469;28;20519;-58
2024/01/12 02:51:45;;;;;;;64.03;29.20;;;3.90;72.70;;;;;;5008117;28;20042;-59
2024/01/12 02:54:14;;;;;;;69.75;29.23;;;3.80;72.60;;;;;;5011065;28;20042;-58
2024/01/12 02:56:44;;;;;;;67.47;29.73;;;3.80;72.70;;;;;;5010348;28;20107;-58
2024/01/12 02:59:13;;;;;;;70.47;29.13;;;3.80;72.80;;;;;;5002216;28;20521;-58
2024/01/12 03:01:39;;;;;;;69.97;30.23;;;3.80;72.90;;;;;;5005960;28;20046;-56
2024/01/12 03:04:06;;;;;;;73.28;29.80;;;3.80;72.90;;;;;;5011163;28;20037;-58
2024/01/12 03:06:35;;;;;;;70.57;29.88;;;3.80;72.90;;;;;;5009634;28;20049;-57
2024/01/12 03:09:04;;;;;;;70.43;28.92;;;3.80;72.90;;;;;;5005643;28;20052;-58
2024/01/12 03:11:34;;;;;;;70.10;30.50;;;3.80;73.00;;;;;;5010423;28;20069;-57
2024/01/12 03:14:00;;;;;;;73.72;31.42;;;3.80;73.10;;;;;;5004721;28;20046;-58
2024/01/12 03:16:27;;;;;;;71.32;27.95;;;3.80;73.20;;;;;;5009634;28;20045;-57
2024/01/12 03:18:54;;;;;;;66.03;29.95;;;3.80;73.20;;;;;;5003668;28;20125;-57
2024/01/12 03:21:24;;;;;;;68.80;30.88;;;3.90;73.30;;;;;;5007626;28;20037;-58
2024/01/12 03:23:56;;;;;;;73.50;31.17;;;3.80;73.30;;;;;;5010470;28;20116;-58
2024/01/12 03:26:25;;;;;;;65.85;30.27;;;3.90;73.30;;;;;;5006071;28;20133;-58
2024/01/12 03:28:51;;;;;;;71.25;32.03;;;3.90;73.20;;;;;;5001796;28;20066;-57
2024/01/12 03:31:22;;;;;;;59.35;29.33;;;3.90;73.20;;;;;;5007668;28;20104;-57
2024/01/12 03:33:53;;;;;;;65.63;31.73;;;3.90;73.20;;;;;;5010411;28;20041;-56
2024/01/12 03:36:22;;;;;;;61.47;31.08;;;3.90;73.20;;;;;;5002012;28;20038;-58
2024/01/12 03:39:05;;;;;;;61.17;29.10;;;3.90;73.30;;;;;;5006439;28;20060;-57
2024/01/12 03:41:37;;;;;;;69.07;31.75;;;3.90;73.30;;;;;;5009819;28;20064;-57
2024/01/12 03:44:05;;;;;;;60.05;29.75;;;3.90;73.30;;;;;;5008872;28;20076;-56
2024/01/12 03:46:35;;;;;;;61.65;30.95;;;3.90;73.40;;;;;;5003805;28;20053;-58
2024/01/12 03:49:02;;;;;;;73.10;33.15;;;3.90;73.40;;;;;;5003482;28;20125;-58
2024/01/12 03:51:29;;;;;;;70.07;31.88;;;3.90;73.40;;;;;;5006806;28;20512;-57
2024/01/12 03:53:57;;;;;;;76.78;34.28;;;3.90;73.40;;;;;;5010261;28;20493;-56
2024/01/12 03:56:26;;;;;;;73.10;33.10;;;3.90;73.50;;;;;;5003829;28;20389;-58
2024/01/12 03:58:52;;;;;;;70.47;30.20;;;3.90;73.50;;;;;;5008137;28;20038;-57
2024/01/12 04:01:23;;;;;;;73.22;33.60;;;3.90;73.50;;;;;;5010013;28;20052;-58
2024/01/12 04:03:50;;;;;;;63.40;32.03;;;3.90;73.40;;;;;;5007873;28;20057;-57
2024/01/12 04:06:18;;;;;;;62.60;30.38;;;3.90;73.50;;;;;;5004959;28;20508;-57
2024/01/12 04:08:46;;;;;;;67.05;31.15;;;3.90;73.50;;;;;;5008893;28;20504;-56
2024/01/12 04:11:24;;;;;;;65.50;30.98;;;3.90;73.50;;;;;;5009286;28;20081;-56
2024/01/12 04:13:55;;;;;;;76.10;32.20;;;3.90;73.80;;;;;;5001681;28;20425;-58
2024/01/12 04:16:22;;;;;;;66.10;29.77;;;3.90;73.60;;;;;;5009128;28;20034;-57
2024/01/12 04:18:55;;;;;;;72.68;34.05;;;3.90;73.50;;;;;;5003578;28;20046;-58
2024/01/12 04:21:24;;;;;;;60.90;30.00;;;3.90;73.50;;;;;;5003639;28;20065;-57
2024/01/12 04:23:51;;;;;;;64.82;30.90;;;3.90;73.50;;;;;;5003821;28;20124;-58
2024/01/12 04:26:18;;;;;;;66.78;31.35;;;3.90;73.60;;;;;;5008997;28;20053;-56
2024/01/12 04:28:49;;;;;;;61.47;29.95;;;4.00;73.60;;;;;;5005461;28;20045;-58
2024/01/12 04:31:16;;;;;;;65.03;31.92;;;4.00;73.60;;;;;;5011773;28;20037;-56
2024/01/12 04:33:45;;;;;;;63.60;29.98;;;3.90;73.50;;;;;;5013399;28;20412;-58
2024/01/12 04:36:12;;;;;;;74.20;32.90;;;3.90;73.50;;;;;;5012814;28;20041;-58
2024/01/12 04:38:41;;;;;;;70.00;32.55;;;3.90;73.60;;;;;;5010965;28;20056;-57
2024/01/12 04:41:08;;;;;;;68.65;33.15;;;4.00;73.80;;;;;;5011932;28;20052;-58
2024/01/12 04:43:36;;;;;;;67.10;32.35;;;4.00;73.80;;;;;;5012141;28;20076;-58
2024/01/12 04:46:03;;;;;;;69.47;31.67;;;3.90;73.80;;;;;;5013507;28;20052;-58
2024/01/12 04:48:33;;;;;;;66.57;31.05;;;4.00;73.80;;;;;;5009839;28;20683;-58
2024/01/12 04:51:02;;;;;;;73.50;32.53;;;4.00;73.80;;;;;;5011666;28;20049;-58
2024/01/12 04:53:29;;;;;;;64.90;32.33;;;4.00;73.90;;;;;;5013261;28;20520;-59
2024/01/12 04:56:01;;;;;;;69.82;31.75;;;4.00;73.80;;;;;;5012888;28;20041;-55
2024/01/12 04:58:28;;;;;;;68.75;34.15;;;4.00;73.80;;;;;;5006023;28;20116;-58
2024/01/12 05:00:55;;;;;;;73.60;35.60;;;4.00;73.80;;;;;;5012498;28;20038;-55
2024/01/12 05:03:21;;;;;;;71.78;32.72;;;4.00;73.90;;;;;;5013386;28;20096;-56
2024/01/12 05:05:55;;;;;;;67.18;33.17;;;4.00;73.90;;;;;;5009487;28;20570;-57
2024/01/12 05:08:22;;;;;;;65.75;32.45;;;4.00;73.80;;;;;;5006347;28;20043;-57
2024/01/12 05:10:57;;;;;;;64.13;31.10;;;4.00;73.80;;;;;;5009089;28;20051;-58
2024/01/12 05:13:24;;;;;;;74.78;34.60;;;4.10;73.90;;;;;;4991644;28;20072;-58
2024/01/12 05:15:55;;;;;;;67.75;33.08;;;4.10;73.90;;;;;;5009091;28;20048;-58
2024/01/12 05:18:25;;;;;;;68.57;32.72;;;4.10;73.90;;;;;;5001189;28;20045;-58
2024/01/12 05:20:52;;;;;;;69.82;31.85;;;4.10;73.90;;;;;;5008158;28;20432;-58
2024/01/12 05:23:19;;;;;;;62.08;32.70;;;4.10;73.80;;;;;;5008721;28;20053;-56
2024/01/12 05:25:54;;;;;;;71.70;33.20;;;4.10;73.80;;;;;;5012086;28;20052;-58
2024/01/12 05:28:23;;;;;;;;;;;4.10;73.90;;;;;;5001401;28;20038;-57
2024/01/12 05:30:49;;;;;;;61.58;29.25;;;4.20;74.70;;;;;;5010151;28;19928;-57
2024/01/12 05:33:17;;;;;;;66.28;30.00;;;4.10;73.40;;;;;;5007368;28;20069;-55
2024/01/12 05:35:45;;;;;;;67.82;31.75;;;4.10;73.40;;;;;;5009920;28;20053;-58
2024/01/12 05:38:12;;;;;;;66.80;33.47;;;4.10;73.50;;;;;;5010999;28;20416;-57
2024/01/12 05:40:39;;;;;;;58.85;31.85;;;4.10;73.50;;;;;;5009138;28;20038;-58
2024/01/12 05:43:05;;;;;;;67.85;30.65;;;4.10;73.60;;;;;;5013346;28;20170;-57
2024/01/12 05:45:32;;;;;;;63.72;32.97;;;4.10;73.60;;;;;;5008322;28;20100;-57
2024/01/12 05:47:59;;;;;;;73.65;33.88;;;4.10;73.70;;;;;;4987225;28;20138;-57
2024/01/12 05:50:26;;;;;;;65.65;32.50;;;4.10;73.70;;;;;;5010584;28;20729;-55
2024/01/12 05:52:52;;;;;;;65.82;33.15;;;4.10;73.70;;;;;;5011338;28;20042;-58
2024/01/12 05:55:19;;;;;;;68.90;32.58;;;4.10;73.80;;;;;;5012134;28;20033;-58
2024/01/12 05:57:46;;;;;;;65.15;32.03;;;4.10;73.90;;;;;;5007952;28;20448;-56
2024/01/12 06:00:13;;;;;;;62.05;33.22;;;4.10;73.90;;;;;;5010713;28;20038;-57
2024/01/12 06:02:40;;;;;;;63.88;31.27;;;4.10;73.90;;;;;;5011231;28;20053;-56
2024/01/12 06:05:07;;;;;;;66.03;32.67;;;4.10;73.90;;;;;;5011507;28;20038;-57
2024/01/12 06:07:34;;;;;;;62.42;31.63;;;4.10;73.90;;;;;;5008302;28;20045;-58
2024/01/12 06:10:00;;;;;;;56.55;29.80;;;4.20;73.90;;;;;;5011126;28;20120;-57
2024/01/12 06:12:27;;;;;;;61.10;31.40;;;4.20;73.90;;;;;;5011205;28;20042;-57
2024/01/12 06:14:54;;;;;;;67.50;32.45;;;4.20;73.90;;;;;;5005393;28;20116;-56
2024/01/12 06:17:20;;;;;;;63.75;32.95;;;4.20;73.80;;;;;;5007749;28;20078;-56
2024/01/12 06:19:47;;;;;;;63.17;32.53;;;4.20;73.80;;;;;;4992157;28;20050;-56
2024/01/12 06:22:14;;;;;;;64.22;32.58;;;4.20;73.80;;;;;;5004870;28;20041;-56
2024/01/12 06:24:41;;;;;;;63.30;33.33;;;4.20;73.80;;;;;;5008669;28;20046;-56
2024/01/12 06:27:07;;;;;;;61.20;32.63;;;4.20;73.80;;;;;;5006574;28;20050;-57
2024/01/12 06:29:36;;;;;;;66.68;31.60;;;4.20;73.80;;;;;;4998982;28;20038;-57
2024/01/12 06:32:03;;;;;;;66.07;31.13;;;4.20;73.80;;;;;;4999952;28;20050;-57
2024/01/12 06:34:30;;;;;;;60.28;30.50;;;4.20;73.80;;;;;;5003530;28;20516;-57
2024/01/12 06:36:57;;;;;;;59.47;31.35;;;4.20;73.80;;;;;;4998029;28;20045;-57
2024/01/12 06:39:23;;;;;;;63.65;31.48;;;4.20;73.80;;;;;;5003650;28;20042;-56
2024/01/12 06:41:52;;;;;;;61.05;30.90;;;4.20;73.80;;;;;;5006794;28;20475;-54
2024/01/12 06:44:19;;;;;;;60.17;31.77;;;4.20;73.80;;;;;;5000848;28;20041;-55
2024/01/12 06:46:46;;;;;;;66.97;33.83;;;4.30;73.90;;;;;;5008080;28;20056;-56
2024/01/12 06:49:13;;;;;;;63.80;32.90;;;4.30;73.90;;;;;;5005100;28;20107;-56
2024/01/12 06:51:40;;;;;;;68.45;34.47;;;4.30;73.90;;;;;;5003815;28;20077;-53
2024/01/12 06:54:07;;;;;;;57.15;32.33;;;4.30;73.90;;;;;;5004331;28;20052;-56
2024/01/12 06:56:37;;;;;;;67.22;35.60;;;4.30;74.40;;;;;;5003203;28;20034;-57
2024/01/12 06:59:04;;;;;;;70.65;34.13;;;4.30;73.80;;;;;;5005685;28;20069;-55
2024/01/12 07:01:33;;;;;;;65.85;33.50;;;4.30;73.80;;;;;;5005532;28;20646;-54
2024/01/12 07:04:00;;;;;;;71.65;37.20;;;4.30;73.80;;;;;;5006940;28;20057;-56
2024/01/12 07:06:27;;;;;;;71.70;33.95;;;4.30;73.80;;;;;;5000839;28;20057;-57
2024/01/12 07:08:56;;;;;;;71.78;34.88;;;4.30;73.80;;;;;;5007505;28;20052;-55
2024/01/12 07:11:24;;;;;;;66.07;34.53;;;4.30;73.80;;;;;;5002556;28;20399;-55
2024/01/12 07:13:52;;;;;;;64.20;34.25;;;4.30;73.80;;;;;;5010894;28;20050;-54
2024/01/12 07:16:19;;;;;;;67.43;35.20;;;4.30;73.80;;;;;;5031446;23;20037;-62
2024/01/12 07:18:45;;;;;;;70.65;34.25;;;4.30;73.80;;;;;;5027170;28;20527;-62
2024/01/12 07:21:12;;;;;;;68.40;32.72;;;4.30;73.80;;;;;;5035423;28;20045;-62
2024/01/12 07:23:42;;;;;;;65.28;33.78;;;4.30;73.80;;;;;;5035126;28;20041;-61
2024/01/12 07:26:08;;;;;;;67.88;32.25;;;4.30;73.80;;;;;;5031660;28;20041;-63
2024/01/12 07:28:35;;;;;;;66.53;34.20;;;4.30;73.70;;;;;;5011736;28;20081;-62
2024/01/12 07:31:02;;;;;;;62.90;33.15;;;4.30;73.80;;;;;;5030593;28;20095;-62
2024/01/12 07:33:28;;;;;;;65.22;35.05;;;4.30;73.80;;;;;;5030227;28;20167;-63
2024/01/12 07:35:55;;;;;;;67.50;33.80;;;4.30;73.80;;;;;;5013458;28;20047;-63
2024/01/12 07:38:22;;;;;;;65.55;35.15;;;4.30;73.90;;;;;;5026476;28;20427;-63
2024/01/12 07:40:49;;;;;;;66.22;35.45;;;4.30;73.90;;;;;;5030246;28;20046;-64
2024/01/12 07:43:15;;;;;;;61.35;33.80;;;4.30;73.90;;;;;;5030225;28;20046;-63
2024/01/12 07:45:42;;;;;;;64.55;33.05;;;4.30;73.90;;;;;;5030518;28;20048;-63
2024/01/12 07:48:09;;;;;;;66.90;32.97;;;4.30;74.00;;;;;;5022788;28;20506;-63
2024/01/12 07:50:36;;;;;;;65.38;32.45;;;4.30;74.00;;;;;;5028159;28;20053;-64
2024/01/12 07:53:03;;;;;;;58.65;31.27;;;4.30;74.00;;;;;;5029498;28;20038;-64
2024/01/12 07:55:31;;;;;;;58.80;33.25;;;4.30;74.00;;;;;;5036609;28;20063;-64
2024/01/12 07:57:57;;;;;;;58.58;33.22;;;4.30;74.00;;;;;;5026167;28;20131;-63
2024/01/12 08:00:24;;;;;;;64.25;34.55;;;4.30;74.00;;;;;;5031408;28;20046;-64
2024/01/12 08:02:54;;;;;;;71.35;35.67;;;4.30;73.90;;;;;;5029173;28;20045;-63
2024/01/12 08:05:24;;;;;;;66.65;32.67;;;4.30;73.90;;;;;;5018808;28;20039;-63
2024/01/12 08:07:55;;;;;;;67.90;35.40;;;4.30;73.90;;;;;;5027064;28;20127;-63
2024/01/12 08:10:21;;;;;;;71.30;34.33;;;4.30;73.90;;;;;;5035227;28;20088;-63
2024/01/12 08:12:49;;;;;;;63.85;33.67;;;4.30;73.90;;;;;;5027347;28;20048;-63
2024/01/12 08:15:16;;;;;;;63.90;34.92;;;4.30;73.90;;;;;;5034923;28;20049;-63
2024/01/12 08:17:43;;;;;;;60.20;34.05;;;4.30;74.00;;;;;;5026798;28;20045;-62
2024/01/12 08:20:10;;;;;;;72.72;35.72;;;4.30;74.20;;;;;;5018198;28;20048;-63
2024/01/12 08:22:37;;;;;;;61.95;34.78;;;4.30;74.00;;;;;;5023541;28;20049;-63
2024/01/12 08:25:04;;;;;;;63.47;32.97;;;4.30;73.90;;;;;;5025198;28;20077;-62
2024/01/12 08:27:32;;;;;;;66.75;32.83;;;4.40;74.00;;;;;;5029043;28;20041;-63
2024/01/12 08:29:58;;;;;;;64.20;35.38;;;4.40;74.00;;;;;;5029716;28;20582;-63
2024/01/12 08:32:25;;;;;;;66.78;33.90;;;4.40;74.00;;;;;;5023467;28;20047;-63
2024/01/12 08:34:52;;;;;;;66.20;33.88;;;4.40;74.10;;;;;;5033949;28;20045;-63
2024/01/12 08:37:19;;;;;;;68.60;34.20;;;4.40;74.10;;;;;;5025450;28;20083;-63
2024/01/12 08:39:45;;;;;;;62.55;32.33;;;4.40;74.10;;;;;;5033034;28;20075;-63
2024/01/12 08:42:12;;;;;;;63.13;34.63;;;4.40;74.10;;;;;;5027166;28;20072;-63
2024/01/12 08:44:39;;;;;;;63.85;33.25;;;4.40;74.10;;;;;;5033288;28;20077;-63
2024/01/12 08:47:06;;;;;;;64.65;34.38;;;4.30;74.00;;;;;;5023367;28;20071;-63
2024/01/12 08:49:33;;;;;;;66.38;34.53;;;4.40;74.00;;;;;;5020396;28;20424;-63
2024/01/12 08:52:00;;;;;;;66.53;35.55;;;4.40;74.00;;;;;;5027795;28;20044;-63
2024/01/12 08:54:26;;;;;;;69.43;35.90;;;4.50;74.10;;;;;;5030057;28;20034;-63
2024/01/12 08:56:53;;;;;;;72.43;34.28;;;4.50;74.00;;;;;;5025276;28;20099;-63
2024/01/12 08:59:20;;;;;;;76.25;38.63;;;4.50;74.00;;;;;;5022169;28;20048;-63
2024/01/12 09:01:47;;;;;;;69.40;36.30;;;4.50;74.10;;;;;;5031947;28;20076;-63
2024/01/12 09:04:14;;;;;;;64.45;34.92;;;4.50;74.20;;;;;;5028495;28;20045;-63
2024/01/12 09:06:41;;;;;;;73.35;36.45;;;4.50;74.10;;;;;;5027896;28;20128;-62
2024/01/12 09:09:08;;;;;;;69.20;37.33;;;4.50;74.10;;;;;;5023778;28;20122;-63
2024/01/12 09:11:35;;;;;;;74.47;35.35;;;4.50;74.10;;;;;;5029202;28;20041;-63
2024/01/12 09:14:05;;;;;;;69.95;35.65;;;4.50;74.70;;;;;;5028826;28;20069;-63
2024/01/12 09:16:35;;;;;;;60.55;33.55;;;4.60;74.20;;;;;;5029794;28;20132;-62
2024/01/12 09:19:02;;;;;;;63.63;35.17;;;4.60;74.10;;;;;;5024281;28;20046;-63
2024/01/12 09:21:29;;;;;;;65.65;35.08;;;4.60;74.10;;;;;;5032870;28;20079;-63
2024/01/12 09:23:57;;;;;;;64.57;34.63;;;4.60;74.00;;;;;;5029797;28;20116;-63
2024/01/12 09:26:24;;;;;;;64.60;33.08;;;4.60;74.00;;;;;;5030652;28;20060;-63
2024/01/12 09:28:51;;;;;;;62.92;33.05;;;4.60;73.90;;;;;;5031498;28;20120;-63
2024/01/12 09:31:18;;;;;;;69.25;34.80;;;4.60;73.90;;;;;;5032236;28;20056;-63
2024/01/12 09:33:47;;;;;;;69.57;33.67;;;4.60;73.80;;;;;;5039278;28;20045;-63
2024/01/12 09:36:14;;;;;;;60.10;33.72;;;4.60;73.90;;;;;;5029648;28;20052;-63
2024/01/12 09:38:41;;;;;;;64.70;34.55;;;4.60;73.90;;;;;;5031551;28;20069;-63
2024/01/12 09:41:09;;;;;;;67.00;35.28;;;4.70;74.00;;;;;;5030431;28;20095;-63
2024/01/12 09:43:41;;;;;;;64.72;35.60;;;4.70;74.00;;;;;;5029529;28;20051;-63
2024/01/12 09:46:09;;;;;;;69.40;35.38;;;4.70;74.00;;;;;;5024892;28;20065;-63
2024/01/12 09:48:37;;;;;;;66.45;37.47;;;4.70;74.00;;;;;;5031019;28;20041;-63
2024/01/12 09:51:06;;;;;;;59.58;34.38;;;4.70;74.00;;;;;;5029858;28;20412;-63
2024/01/12 09:53:33;;;;;;;60.13;33.20;;;4.70;74.00;;;;;;5030262;28;20043;-63
2024/01/12 09:56:00;;;;;;;65.82;34.88;;;4.70;74.00;;;;;;5024367;28;20038;-63
2024/01/12 09:58:38;;;;;;;58.97;32.33;;;4.70;74.00;;;;;;5028895;28;20105;-63
2024/01/12 10:01:06;;;;;;;52.50;29.95;;;4.80;74.10;;;;;;5020774;28;20038;-63
2024/01/12 10:03:34;;;;;;;60.42;31.02;;;4.80;73.90;;;;;;5035430;28;20044;-63
2024/01/12 10:06:01;;;;;;;59.95;31.58;;;4.80;73.90;;;;;;5022864;28;20045;-63
2024/01/12 10:08:40;;;;;;;61.80;32.88;;;4.80;73.90;;;;;;5025815;28;20042;-63
2024/01/12 10:11:09;;;;;;;59.38;32.88;;;4.80;74.00;;;;;;5022180;28;20052;-63
2024/01/12 10:13:35;;;;;;;58.92;32.22;;;4.80;73.80;;;;;;5021289;28;20041;-63
2024/01/12 10:16:02;;;;;;;60.13;33.85;;;4.80;73.80;;;;;;5022855;28;20133;-63
2024/01/12 10:18:29;;;;;;;59.15;31.15;;;4.80;73.80;;;;;;5023978;28;20442;-63
2024/01/12 10:21:00;;;;;;;61.75;31.90;;;4.80;73.80;;;;;;5026707;28;20135;-63
2024/01/12 10:23:27;;;;;;;48.72;27.70;;;4.80;73.70;;;;;;5029816;28;20041;-63
2024/01/12 10:26:01;;;;;;;49.28;27.80;;;4.80;73.70;;;;;;5034692;28;20045;-63
2024/01/12 10:28:32;;;;;;;49.10;25.75;;;4.90;73.90;;;;;;5022590;28;20045;-63
2024/01/12 10:31:05;;;;;;;45.50;26.17;;;4.90;73.90;;;;;;5030856;28;20057;-63
2024/01/12 10:33:32;;;;;;;47.85;25.63;;;4.90;73.90;;;;;;5032823;28;20037;-63
2024/01/12 10:36:06;;;;;;;39.63;23.25;;;4.90;73.90;;;;;;5029926;28;20055;-63
2024/01/12 10:38:37;;;;;;;40.55;22.25;;;4.90;74.10;;;;;;5019200;28;20041;-63
2024/01/12 10:41:06;;;;;;;37.03;20.92;;;5.00;74.10;;;;;;5033021;28;20125;-63
2024/01/12 10:43:36;;;;;;;44.33;22.73;;;5.00;74.00;;;;;;5029450;28;20033;-63
2024/01/12 10:46:16;;;;;;;37.25;22.55;;;5.00;74.10;;;;;;5028062;28;20053;-63
2024/01/12 10:49:01;;;;;;;42.08;22.63;;;5.10;74.20;;;;;;5029782;28;20458;-63
2024/01/12 10:51:35;;;;;;;37.85;22.33;;;5.10;74.20;;;;;;5027358;28;20041;-63
2024/01/12 10:54:23;;;;;;;40.33;22.42;;;5.10;74.10;;;;;;5033844;28;20040;-63
2024/01/12 10:56:55;;;;;;;43.17;23.02;;;5.20;74.30;;;;;;5021464;28;20052;-63
2024/01/12 10:59:23;;;;;;;38.88;21.88;;;5.20;74.00;;;;;;5029815;28;20091;-63
2024/01/12 11:01:50;;;;;;;42.55;22.38;;;5.30;73.90;;;;;;5030411;28;20053;-63
2024/01/12 11:04:17;;;;;;;37.47;22.10;;;5.30;73.80;;;;;;5032336;28;20056;-63
2024/01/12 11:06:45;;;;;;;37.38;25.92;;;5.30;73.70;;;;;;5023672;28;20143;-63
2024/01/12 11:09:16;;;;;;;40.67;25.50;;;5.40;73.80;;;;;;5027531;28;20044;-61
2024/01/12 11:12:05;;;;;;;39.97;24.60;;;5.40;73.80;;;;;;5028094;28;20789;-61
2024/01/12 11:14:33;;;;;;;40.67;22.70;;;5.40;73.70;;;;;;5018006;28;20058;-61
2024/01/12 11:17:00;;;;;;;37.80;21.80;;;5.50;73.60;;;;;;5022584;28;20049;-62
2024/01/12 11:19:27;;;;;;;37.30;22.17;;;5.50;73.50;;;;;;5018080;28;20496;-61
2024/01/12 11:22:23;;;;;;;38.67;21.25;;;5.50;73.50;;;;;;5020321;28;20049;-61
2024/01/12 11:24:50;;;;;;;37.63;19.95;;;5.60;73.80;;;;;;5024381;28;20072;-61
2024/01/12 11:27:17;;;;;;;32.35;20.63;;;5.60;73.40;;;;;;5025641;28;20037;-61
2024/01/12 11:29:44;;;;;;;36.60;21.10;;;5.60;73.30;;;;;;5008562;28;20069;-61
2024/01/12 11:32:14;;;;;;;36.50;21.77;;;5.60;73.30;;;;;;5027802;28;20049;-62
2024/01/12 11:34:41;;;;;;;37.78;20.30;;;5.70;73.30;;;;;;5027243;28;20116;-63
2024/01/12 11:37:10;;;;;;;35.70;20.63;;;5.70;73.30;;;;;;5026213;28;20504;-62
2024/01/12 11:39:37;;;;;;;39.80;20.85;;;5.70;73.30;;;;;;5024211;28;20207;-62
2024/01/12 11:42:07;;;;;;;34.10;19.63;;;5.80;73.30;;;;;;5029731;28;20092;-62
2024/01/12 11:44:35;;;;;;;38.28;21.73;;;5.80;73.30;;;;;;5030618;28;20393;-61
2024/01/12 11:47:07;;;;;;;32.42;19.95;;;5.80;73.20;;;;;;5023576;28;20128;-62
2024/01/12 11:49:35;;;;;;;36.30;22.15;;;5.90;73.20;;;;;;5025733;28;20041;-62
2024/01/12 11:52:05;;;;;;;40.33;21.40;;;5.90;73.10;;;;;;5023811;28;20602;-62
2024/01/12 11:54:32;;;;;;;41.72;22.13;;;5.90;73.70;;;;;;5024971;28;20048;-61
2024/01/12 11:57:01;;;;;;;37.92;21.73;;;5.90;73.10;;;;;;5019437;28;20432;-62
2024/01/12 11:59:29;;;;;;;34.67;21.67;;;6.00;73.10;;;;;;5028348;28;20061;-61
2024/01/12 12:01:55;;;;;;;33.95;21.92;;;6.00;73.00;;;;;;5029513;28;20534;-62
2024/01/12 12:04:22;;;;;;;46.83;23.55;;;6.00;73.50;;;;;;5026524;28;20120;-61
2024/01/12 12:06:49;;;;;;;37.80;21.65;;;6.10;72.80;;;;;;5021376;28;20045;-61
2024/01/12 12:09:17;;;;;;;43.75;22.50;;;6.10;72.70;;;;;;5029312;28;20042;-61
2024/01/12 12:11:44;;;;;;;35.83;21.52;;;6.10;72.50;;;;;;5029627;28;20500;-62
2024/01/12 12:14:10;;;;;;;32.40;19.50;;;6.10;72.40;;;;;;5022607;28;20049;-62
2024/01/12 12:16:37;;;;;;;40.03;22.38;;;6.10;72.40;;;;;;5011934;28;20506;-63
2024/01/12 12:19:04;;;;;;;43.47;23.60;;;6.10;72.30;;;;;;5026027;28;20041;-63
2024/01/12 12:21:31;;;;;;;43.67;23.88;;;6.10;72.20;;;;;;5025991;28;20456;-63
2024/01/12 12:23:58;;;;;;;45.00;23.00;;;6.10;72.10;;;;;;5027705;28;20504;-61
2024/01/12 12:26:25;;;;;;;42.17;23.40;;;6.10;72.20;;;;;;5025062;28;20049;-62
2024/01/12 12:28:55;;;;;;;39.58;22.27;;;6.10;72.20;;;;;;5023264;28;20136;-62
2024/01/12 12:31:23;;;;;;;46.55;24.75;;;6.10;72.20;;;;;;5034043;28;20099;-62
2024/01/12 12:33:52;;;;;;;47.25;24.20;;;6.10;72.30;;;;;;5029315;28;20116;-61
2024/01/12 12:36:19;;;;;;;48.13;25.42;;;6.10;72.20;;;;;;5030653;28;20052;-62
2024/01/12 12:38:46;;;;;;;47.50;26.30;;;6.10;72.00;;;;;;5022941;28;20046;-62
2024/01/12 12:41:13;;;;;;;52.22;26.85;;;6.10;71.90;;;;;;5017152;28;20037;-61
2024/01/12 12:43:40;;;;;;;50.83;28.33;;;6.10;71.90;;;;;;5027199;28;20053;-62
2024/01/12 12:46:07;;;;;;;53.97;27.52;;;6.00;72.00;;;;;;5023228;28;20052;-61